sensor_id;sensor_type;location;lat;lon;timestamp;temperature;humidity
14357;DHT22;7262;48.764;9.166;2023-07-31T00:01:25;15.30;99.90
14357;DHT22;7262;48.764;9.166;2023-07-31T00:03:52;15.30;99.90
14357;DHT22;7262;48.764;9.166;2023-07-31T00:06:20;15.30;99.90
14357;DHT22;7262;48.764;9.166;2023-07-31T00:08:47;15.30;99.90
14357;DHT22;7262;48.764;9.166;2023-07-31T00:11:13;15.30;99.90
14357;DHT22;7262;48.764;9.166;2023-07-31T00:13:41;15.30;99.90
14357;DHT22;7262;48.764;9.166;2023-07-31T00:16:07;15.20;99.90
14357;DHT22;7262;48.764;9.166;2023-07-31T00:18:37;15.30;99.90
14357;DHT22;7262;48.764;9.166;2023-07-31T00:21:03;15.20;99.90
14357;DHT22;7262;48.764;9.166;2023-07-31T00:23:32;15.30;99.90
14357;DHT22;7262;48.764;9.166;2023-07-31T00:25:58;15.30;99.90
14357;DHT22;7262;48.764;9.166;2023-07-31T00:28:25;15.30;99.90
14357;DHT22;7262;48.764;9.166;2023-07-31T00:30:52;15.40;99.90
14357;DHT22;7262;48.764;9.166;2023-07-31T00:33:19;15.30;99.90
14357;DHT22;7262;48.764;9.166;2023-07-31T00:35:46;15.30;99.90
14357;DHT22;7262;48.764;9.166;2023-07-31T00:40:50;15.30;99.90
14357;DHT22;7262;48.764;9.166;2023-07-31T00:43:18;15.30;99.90
14357;DHT22;7262;48.764;9.166;2023-07-31T00:45:45;15.30;99.90
14357;DHT22;7262;48.764;9.166;2023-07-31T00:48:11;15.30;99.90
14357;DHT22;7262;48.764;9.166;2023-07-31T00:50:38;15.30;99.90
14357;DHT22;7262;48.764;9.166;2023-07-31T00:53:05;15.30;99.90
14357;DHT22;7262;48.764;9.166;2023-07-31T00:55:32;15.20;99.90
14357;DHT22;7262;48.764;9.166;2023-07-31T00:58:03;15.30;99.90
14357;DHT22;7262;48.764;9.166;2023-07-31T01:00:30;15.30;99.90
14357;DHT22;7262;48.764;9.166;2023-07-31T01:02:59;15.30;99.90
14357;DHT22;7262;48.764;9.166;2023-07-31T01:05:29;15.30;99.90
14357;DHT22;7262;48.764;9.166;2023-07-31T01:08:02;15.30;99.90
14357;DHT22;7262;48.764;9.166;2023-07-31T01:10:33;15.30;99.90
14357;DHT22;7262;48.764;9.166;2023-07-31T01:13:03;15.20;99.90
14357;DHT22;7262;48.764;9.166;2023-07-31T01:15:32;15.20;99.90
14357;DHT22;7262;48.764;9.166;2023-07-31T01:18:04;15.10;99.90
14357;DHT22;7262;48.764;9.166;2023-07-31T01:20:30;15.10;99.90
14357;DHT22;7262;48.764;9.166;2023-07-31T01:23:20;15.10;99.90
14357;DHT22;7262;48.764;9.166;2023-07-31T01:26:02;15.10;99.90
14357;DHT22;7262;48.764;9.166;2023-07-31T01:28:32;15.10;99.90
14357;DHT22;7262;48.764;9.166;2023-07-31T01:30:59;15.10;99.90
14357;DHT22;7262;48.764;9.166;2023-07-31T01:33:26;15.00;99.90
14357;DHT22;7262;48.764;9.166;2023-07-31T01:35:56;15.00;99.90
14357;DHT22;7262;48.764;9.166;2023-07-31T01:38:23;14.90;99.90
14357;DHT22;7262;48.764;9.166;2023-07-31T01:40:51;15.00;99.90
14357;DHT22;7262;48.764;9.166;2023-07-31T01:43:20;15.00;99.90
14357;DHT22;7262;48.764;9.166;2023-07-31T01:45:47;14.90;99.90
14357;DHT22;7262;48.764;9.166;2023-07-31T01:48:14;14.90;99.90
14357;DHT22;7262;48.764;9.166;2023-07-31T01:50:40;14.90;99.90
14357;DHT22;7262;48.764;9.166;2023-07-31T01:53:07;14.80;99.90
14357;DHT22;7262;48.764;9.166;2023-07-31T01:55:34;14.80;99.90
14357;DHT22;7262;48.764;9.166;2023-07-31T01:58:01;14.80;99.90
14357;DHT22;7262;48.764;9.166;2023-07-31T02:00:29;14.80;99.90
14357;DHT22;7262;48.764;9.166;2023-07-31T02:02:56;14.80;99.90
14357;DHT22;7262;48.764;9.166;2023-07-31T02:05:23;14.80;99.90
14357;DHT22;7262;48.764;9.166;2023-07-31T02:07:50;14.80;99.90
14357;DHT22;7262;48.764;9.166;2023-07-31T02:10:17;14.90;99.90
14357;DHT22;7262;48.764;9.166;2023-07-31T02:12:43;14.90;99.90
14357;DHT22;7262;48.764;9.166;2023-07-31T02:15:10;14.90;99.90
14357;DHT22;7262;48.764;9.166;2023-07-31T02:17:39;14.90;99.90
14357;DHT22;7262;48.764;9.166;2023-07-31T02:20:06;14.90;99.90
14357;DHT22;7262;48.764;9.166;2023-07-31T02:25:05;14.80;99.90
14357;DHT22;7262;48.764;9.166;2023-07-31T02:27:31;14.70;99.90
14357;DHT22;7262;48.764;9.166;2023-07-31T02:29:58;14.60;99.90
14357;DHT22;7262;48.764;9.166;2023-07-31T02:32:25;14.60;99.90
14357;DHT22;7262;48.764;9.166;2023-07-31T02:34:53;14.50;99.90
14357;DHT22;7262;48.764;9.166;2023-07-31T02:37:20;14.50;99.90
14357;DHT22;7262;48.764;9.166;2023-07-31T02:39:47;14.40;99.90
14357;DHT22;7262;48.764;9.166;2023-07-31T02:42:14;14.50;99.90
14357;DHT22;7262;48.764;9.166;2023-07-31T02:44:41;14.50;99.90
14357;DHT22;7262;48.764;9.166;2023-07-31T02:47:07;14.50;99.90
14357;DHT22;7262;48.764;9.166;2023-07-31T02:49:34;14.60;99.90
14357;DHT22;7262;48.764;9.166;2023-07-31T02:52:02;14.60;99.90
14357;DHT22;7262;48.764;9.166;2023-07-31T02:54:30;14.60;99.90
14357;DHT22;7262;48.764;9.166;2023-07-31T02:56:56;14.70;99.90
14357;DHT22;7262;48.764;9.166;2023-07-31T02:59:23;14.70;99.90
14357;DHT22;7262;48.764;9.166;2023-07-31T03:01:50;14.80;99.90
14357;DHT22;7262;48.764;9.166;2023-07-31T03:04:17;14.90;99.90
14357;DHT22;7262;48.764;9.166;2023-07-31T03:06:44;14.90;99.90
14357;DHT22;7262;48.764;9.166;2023-07-31T03:09:12;14.90;99.90
14357;DHT22;7262;48.764;9.166;2023-07-31T03:11:39;14.90;99.90
14357;DHT22;7262;48.764;9.166;2023-07-31T03:14:05;14.90;99.90
14357;DHT22;7262;48.764;9.166;2023-07-31T03:16:32;14.90;99.90
14357;DHT22;7262;48.764;9.166;2023-07-31T03:19:00;14.80;99.90
14357;DHT22;7262;48.764;9.166;2023-07-31T03:21:27;14.70;99.90
14357;DHT22;7262;48.764;9.166;2023-07-31T03:23:54;14.60;99.90
14357;DHT22;7262;48.764;9.166;2023-07-31T03:26:22;14.60;99.90
14357;DHT22;7262;48.764;9.166;2023-07-31T03:28:51;14.60;99.90
14357;DHT22;7262;48.764;9.166;2023-07-31T03:31:18;14.60;99.90
14357;DHT22;7262;48.764;9.166;2023-07-31T03:33:46;14.50;99.90
14357;DHT22;7262;48.764;9.166;2023-07-31T03:36:14;14.50;99.90
14357;DHT22;7262;48.764;9.166;2023-07-31T03:38:40;14.60;99.90
14357;DHT22;7262;48.764;9.166;2023-07-31T03:41:11;14.60;99.90
14357;DHT22;7262;48.764;9.166;2023-07-31T03:43:39;14.60;99.90
14357;DHT22;7262;48.764;9.166;2023-07-31T03:46:06;14.60;99.90
14357;DHT22;7262;48.764;9.166;2023-07-31T03:48:33;14.60;99.90
14357;DHT22;7262;48.764;9.166;2023-07-31T03:51:01;14.60;99.90
14357;DHT22;7262;48.764;9.166;2023-07-31T03:53:28;14.60;99.90
14357;DHT22;7262;48.764;9.166;2023-07-31T03:55:54;14.60;99.90
14357;DHT22;7262;48.764;9.166;2023-07-31T03:58:23;14.60;99.90
14357;DHT22;7262;48.764;9.166;2023-07-31T04:00:51;14.60;99.90
14357;DHT22;7262;48.764;9.166;2023-07-31T04:03:18;14.60;99.90
14357;DHT22;7262;48.764;9.166;2023-07-31T04:05:47;14.60;99.90
14357;DHT22;7262;48.764;9.166;2023-07-31T04:08:14;14.70;99.90
14357;DHT22;7262;48.764;9.166;2023-07-31T04:10:43;14.70;99.90
14357;DHT22;7262;48.764;9.166;2023-07-31T04:13:12;14.80;99.90
14357;DHT22;7262;48.764;9.166;2023-07-31T04:15:40;14.90;99.90
14357;DHT22;7262;48.764;9.166;2023-07-31T04:18:08;15.00;99.90
14357;DHT22;7262;48.764;9.166;2023-07-31T04:20:35;15.00;99.90
14357;DHT22;7262;48.764;9.166;2023-07-31T04:23:03;15.10;99.90
14357;DHT22;7262;48.764;9.166;2023-07-31T04:25:30;15.20;99.90
14357;DHT22;7262;48.764;9.166;2023-07-31T04:28:00;15.20;99.90
14357;DHT22;7262;48.764;9.166;2023-07-31T04:30:28;15.30;99.90
14357;DHT22;7262;48.764;9.166;2023-07-31T04:32:56;15.30;99.90
14357;DHT22;7262;48.764;9.166;2023-07-31T04:35:24;15.40;99.90
14357;DHT22;7262;48.764;9.166;2023-07-31T04:37:51;15.40;99.90
14357;DHT22;7262;48.764;9.166;2023-07-31T04:40:18;15.40;99.90
14357;DHT22;7262;48.764;9.166;2023-07-31T04:42:45;15.40;99.90
14357;DHT22;7262;48.764;9.166;2023-07-31T04:45:11;15.40;99.90
14357;DHT22;7262;48.764;9.166;2023-07-31T04:47:38;15.50;99.90
14357;DHT22;7262;48.764;9.166;2023-07-31T04:50:05;15.60;99.90
14357;DHT22;7262;48.764;9.166;2023-07-31T04:52:34;15.60;99.90
14357;DHT22;7262;48.764;9.166;2023-07-31T04:55:01;15.70;99.90
14357;DHT22;7262;48.764;9.166;2023-07-31T04:57:28;15.90;99.90
14357;DHT22;7262;48.764;9.166;2023-07-31T04:59:58;16.00;99.90
14357;DHT22;7262;48.764;9.166;2023-07-31T05:02:24;16.00;99.90
14357;DHT22;7262;48.764;9.166;2023-07-31T05:04:51;16.10;99.90
14357;DHT22;7262;48.764;9.166;2023-07-31T05:07:18;16.10;99.90
14357;DHT22;7262;48.764;9.166;2023-07-31T05:09:46;16.10;99.90
14357;DHT22;7262;48.764;9.166;2023-07-31T05:12:13;16.10;99.90
14357;DHT22;7262;48.764;9.166;2023-07-31T05:14:40;16.10;99.90
14357;DHT22;7262;48.764;9.166;2023-07-31T05:17:07;16.20;99.90
14357;DHT22;7262;48.764;9.166;2023-07-31T05:19:33;16.30;99.90
14357;DHT22;7262;48.764;9.166;2023-07-31T05:22:00;16.30;99.90
14357;DHT22;7262;48.764;9.166;2023-07-31T05:24:28;16.40;99.90
14357;DHT22;7262;48.764;9.166;2023-07-31T05:26:56;16.50;99.90
14357;DHT22;7262;48.764;9.166;2023-07-31T05:29:23;16.60;99.90
14357;DHT22;7262;48.764;9.166;2023-07-31T05:31:49;16.70;99.90
14357;DHT22;7262;48.764;9.166;2023-07-31T05:34:16;16.70;99.90
14357;DHT22;7262;48.764;9.166;2023-07-31T05:36:43;16.90;99.90
14357;DHT22;7262;48.764;9.166;2023-07-31T05:39:10;17.10;99.90
14357;DHT22;7262;48.764;9.166;2023-07-31T05:41:37;17.60;99.90
14357;DHT22;7262;48.764;9.166;2023-07-31T05:44:05;18.10;99.90
14357;DHT22;7262;48.764;9.166;2023-07-31T05:46:32;18.40;99.90
14357;DHT22;7262;48.764;9.166;2023-07-31T05:48:59;18.80;99.90
14357;DHT22;7262;48.764;9.166;2023-07-31T05:51:27;19.00;99.90
14357;DHT22;7262;48.764;9.166;2023-07-31T05:53:53;19.30;99.90
14357;DHT22;7262;48.764;9.166;2023-07-31T05:56:20;19.70;99.90
14357;DHT22;7262;48.764;9.166;2023-07-31T05:58:47;19.80;99.90
14357;DHT22;7262;48.764;9.166;2023-07-31T06:01:17;19.90;99.90
14357;DHT22;7262;48.764;9.166;2023-07-31T06:03:45;20.20;99.90
14357;DHT22;7262;48.764;9.166;2023-07-31T06:06:12;21.00;99.90
14357;DHT22;7262;48.764;9.166;2023-07-31T06:08:40;21.80;99.90
14357;DHT22;7262;48.764;9.166;2023-07-31T06:11:07;22.00;99.90
14357;DHT22;7262;48.764;9.166;2023-07-31T06:13:34;22.40;99.90
14357;DHT22;7262;48.764;9.166;2023-07-31T06:16:03;22.90;99.90
14357;DHT22;7262;48.764;9.166;2023-07-31T06:18:33;22.90;99.90
14357;DHT22;7262;48.764;9.166;2023-07-31T06:23:36;22.70;99.90
14357;DHT22;7262;48.764;9.166;2023-07-31T06:26:03;23.00;99.90
14357;DHT22;7262;48.764;9.166;2023-07-31T06:28:30;22.70;99.90
14357;DHT22;7262;48.764;9.166;2023-07-31T06:31:02;22.70;99.90
14357;DHT22;7262;48.764;9.166;2023-07-31T06:36:20;23.60;99.90
14357;DHT22;7262;48.764;9.166;2023-07-31T06:43:58;22.20;99.90
14357;DHT22;7262;48.764;9.166;2023-07-31T06:46:30;21.60;99.90
14357;DHT22;7262;48.764;9.166;2023-07-31T06:51:28;21.90;99.90
14357;DHT22;7262;48.764;9.166;2023-07-31T06:53:56;22.20;99.90
14357;DHT22;7262;48.764;9.166;2023-07-31T06:59:03;22.90;99.90
14357;DHT22;7262;48.764;9.166;2023-07-31T07:01:29;23.40;99.90
14357;DHT22;7262;48.764;9.166;2023-07-31T07:03:56;23.70;99.90
14357;DHT22;7262;48.764;9.166;2023-07-31T07:06:23;24.50;99.90
14357;DHT22;7262;48.764;9.166;2023-07-31T07:08:52;23.90;99.90
14357;DHT22;7262;48.764;9.166;2023-07-31T07:11:19;23.00;99.90
14357;DHT22;7262;48.764;9.166;2023-07-31T07:13:50;22.80;99.90
14357;DHT22;7262;48.764;9.166;2023-07-31T07:16:19;23.00;99.90
14357;DHT22;7262;48.764;9.166;2023-07-31T07:18:46;23.10;99.90
14357;DHT22;7262;48.764;9.166;2023-07-31T07:21:13;23.80;99.90
14357;DHT22;7262;48.764;9.166;2023-07-31T07:23:44;24.80;99.90
14357;DHT22;7262;48.764;9.166;2023-07-31T07:26:12;25.30;99.90
14357;DHT22;7262;48.764;9.166;2023-07-31T07:28:38;25.50;99.90
14357;DHT22;7262;48.764;9.166;2023-07-31T07:31:05;25.40;99.90
14357;DHT22;7262;48.764;9.166;2023-07-31T07:33:32;25.60;99.90
14357;DHT22;7262;48.764;9.166;2023-07-31T07:36:00;24.90;99.90
14357;DHT22;7262;48.764;9.166;2023-07-31T07:41:02;23.10;99.90
14357;DHT22;7262;48.764;9.166;2023-07-31T07:43:45;22.60;99.90
14357;DHT22;7262;48.764;9.166;2023-07-31T07:46:12;22.30;99.90
14357;DHT22;7262;48.764;9.166;2023-07-31T07:56:26;22.10;99.90
14357;DHT22;7262;48.764;9.166;2023-07-31T07:59:01;23.30;99.90
14357;DHT22;7262;48.764;9.166;2023-07-31T08:04:12;24.00;99.90
14357;DHT22;7262;48.764;9.166;2023-07-31T08:09:17;26.00;99.90
14357;DHT22;7262;48.764;9.166;2023-07-31T08:14:39;26.40;99.90
14357;DHT22;7262;48.764;9.166;2023-07-31T08:17:06;26.70;99.90
14357;DHT22;7262;48.764;9.166;2023-07-31T08:19:32;26.60;99.90
14357;DHT22;7262;48.764;9.166;2023-07-31T08:21:59;26.60;99.90
14357;DHT22;7262;48.764;9.166;2023-07-31T08:24:26;26.60;99.90
14357;DHT22;7262;48.764;9.166;2023-07-31T08:26:53;26.90;99.90
14357;DHT22;7262;48.764;9.166;2023-07-31T08:34:41;27.10;99.90
14357;DHT22;7262;48.764;9.166;2023-07-31T08:37:08;26.60;99.90
14357;DHT22;7262;48.764;9.166;2023-07-31T08:39:36;26.40;99.90
14357;DHT22;7262;48.764;9.166;2023-07-31T08:42:07;25.80;99.90
14357;DHT22;7262;48.764;9.166;2023-07-31T08:44:35;25.90;99.90
14357;DHT22;7262;48.764;9.166;2023-07-31T08:47:03;25.90;99.90
14357;DHT22;7262;48.764;9.166;2023-07-31T08:49:30;26.70;99.90
14357;DHT22;7262;48.764;9.166;2023-07-31T08:51:58;26.80;99.90
14357;DHT22;7262;48.764;9.166;2023-07-31T08:54:26;26.60;99.90
14357;DHT22;7262;48.764;9.166;2023-07-31T08:56:56;26.10;99.90
14357;DHT22;7262;48.764;9.166;2023-07-31T08:59:26;25.90;99.90
14357;DHT22;7262;48.764;9.166;2023-07-31T09:01:55;26.40;99.90
14357;DHT22;7262;48.764;9.166;2023-07-31T09:04:24;26.50;99.90
14357;DHT22;7262;48.764;9.166;2023-07-31T09:06:51;26.10;99.90
14357;DHT22;7262;48.764;9.166;2023-07-31T09:09:22;26.40;99.90
14357;DHT22;7262;48.764;9.166;2023-07-31T09:14:24;26.10;99.90
14357;DHT22;7262;48.764;9.166;2023-07-31T09:16:52;25.80;99.90
14357;DHT22;7262;48.764;9.166;2023-07-31T09:19:24;25.70;99.90
14357;DHT22;7262;48.764;9.166;2023-07-31T09:21:51;26.20;99.90
14357;DHT22;7262;48.764;9.166;2023-07-31T09:24:26;26.20;99.90
14357;DHT22;7262;48.764;9.166;2023-07-31T09:26:53;26.40;99.90
14357;DHT22;7262;48.764;9.166;2023-07-31T09:29:21;25.90;99.90
14357;DHT22;7262;48.764;9.166;2023-07-31T09:31:47;25.40;99.90
14357;DHT22;7262;48.764;9.166;2023-07-31T09:34:14;24.90;99.90
14357;DHT22;7262;48.764;9.166;2023-07-31T09:36:45;24.40;99.90
14357;DHT22;7262;48.764;9.166;2023-07-31T09:39:12;23.80;99.90
14357;DHT22;7262;48.764;9.166;2023-07-31T09:41:41;23.50;99.90
14357;DHT22;7262;48.764;9.166;2023-07-31T09:44:09;23.10;99.90
14357;DHT22;7262;48.764;9.166;2023-07-31T09:46:50;22.80;99.90
14357;DHT22;7262;48.764;9.166;2023-07-31T09:49:17;22.60;99.90
14357;DHT22;7262;48.764;9.166;2023-07-31T09:51:44;22.70;99.90
14357;DHT22;7262;48.764;9.166;2023-07-31T09:54:11;23.50;99.90
14357;DHT22;7262;48.764;9.166;2023-07-31T09:56:43;24.90;99.90
14357;DHT22;7262;48.764;9.166;2023-07-31T09:59:11;25.80;99.90
14357;DHT22;7262;48.764;9.166;2023-07-31T10:01:38;26.70;99.90
14357;DHT22;7262;48.764;9.166;2023-07-31T10:04:06;26.50;99.90
14357;DHT22;7262;48.764;9.166;2023-07-31T10:06:34;25.50;99.90
14357;DHT22;7262;48.764;9.166;2023-07-31T10:09:01;25.10;99.90
14357;DHT22;7262;48.764;9.166;2023-07-31T10:11:30;25.70;99.90
14357;DHT22;7262;48.764;9.166;2023-07-31T10:29:34;23.80;99.90
14357;DHT22;7262;48.764;9.166;2023-07-31T10:39:56;24.30;99.90
14357;DHT22;7262;48.764;9.166;2023-07-31T10:42:30;24.50;99.90
14357;DHT22;7262;48.764;9.166;2023-07-31T10:45:00;24.50;99.90
14357;DHT22;7262;48.764;9.166;2023-07-31T10:47:27;24.60;99.90
14357;DHT22;7262;48.764;9.166;2023-07-31T10:52:35;24.70;99.90
14357;DHT22;7262;48.764;9.166;2023-07-31T10:55:14;25.00;99.90
14357;DHT22;7262;48.764;9.166;2023-07-31T10:57:44;25.10;99.90
14357;DHT22;7262;48.764;9.166;2023-07-31T11:00:23;25.50;99.90
14357;DHT22;7262;48.764;9.166;2023-07-31T11:03:01;25.70;99.90
14357;DHT22;7262;48.764;9.166;2023-07-31T11:08:10;25.40;99.90
14357;DHT22;7262;48.764;9.166;2023-07-31T11:10:37;25.00;99.90
14357;DHT22;7262;48.764;9.166;2023-07-31T11:13:04;24.90;99.90
14357;DHT22;7262;48.764;9.166;2023-07-31T11:15:32;24.90;99.90
14357;DHT22;7262;48.764;9.166;2023-07-31T11:18:00;24.20;99.90
14357;DHT22;7262;48.764;9.166;2023-07-31T11:20:29;24.00;99.90
14357;DHT22;7262;48.764;9.166;2023-07-31T11:22:57;24.10;99.90
14357;DHT22;7262;48.764;9.166;2023-07-31T11:25:24;24.30;99.90
14357;DHT22;7262;48.764;9.166;2023-07-31T11:27:51;24.60;99.90
14357;DHT22;7262;48.764;9.166;2023-07-31T11:30:19;24.90;99.90
14357;DHT22;7262;48.764;9.166;2023-07-31T11:32:48;25.00;99.90
14357;DHT22;7262;48.764;9.166;2023-07-31T11:35:15;24.90;99.90
14357;DHT22;7262;48.764;9.166;2023-07-31T11:37:42;24.50;99.90
14357;DHT22;7262;48.764;9.166;2023-07-31T11:40:10;24.40;99.90
14357;DHT22;7262;48.764;9.166;2023-07-31T11:42:37;24.50;99.90
14357;DHT22;7262;48.764;9.166;2023-07-31T11:45:05;25.40;99.90
14357;DHT22;7262;48.764;9.166;2023-07-31T11:47:32;25.50;99.90
14357;DHT22;7262;48.764;9.166;2023-07-31T11:50:01;25.60;99.90
14357;DHT22;7262;48.764;9.166;2023-07-31T11:52:29;25.70;99.90
14357;DHT22;7262;48.764;9.166;2023-07-31T11:54:56;25.90;99.90
14357;DHT22;7262;48.764;9.166;2023-07-31T11:57:24;25.70;99.90
14357;DHT22;7262;48.764;9.166;2023-07-31T11:59:51;25.20;99.90
14357;DHT22;7262;48.764;9.166;2023-07-31T12:02:18;24.90;99.90
14357;DHT22;7262;48.764;9.166;2023-07-31T12:04:46;25.00;99.90
14357;DHT22;7262;48.764;9.166;2023-07-31T12:07:16;24.70;99.90
14357;DHT22;7262;48.764;9.166;2023-07-31T12:09:50;24.60;99.90
14357;DHT22;7262;48.764;9.166;2023-07-31T12:12:19;24.70;99.90
14357;DHT22;7262;48.764;9.166;2023-07-31T12:14:46;24.90;99.90
14357;DHT22;7262;48.764;9.166;2023-07-31T12:17:13;25.00;99.90
14357;DHT22;7262;48.764;9.166;2023-07-31T12:19:40;24.80;99.90
14357;DHT22;7262;48.764;9.166;2023-07-31T12:22:22;24.50;99.90
14357;DHT22;7262;48.764;9.166;2023-07-31T12:24:50;24.30;99.90
14357;DHT22;7262;48.764;9.166;2023-07-31T12:27:20;24.10;99.90
14357;DHT22;7262;48.764;9.166;2023-07-31T12:29:50;24.00;99.90
14357;DHT22;7262;48.764;9.166;2023-07-31T12:32:20;23.90;99.90
14357;DHT22;7262;48.764;9.166;2023-07-31T12:34:47;24.00;99.90
14357;DHT22;7262;48.764;9.166;2023-07-31T12:37:14;24.10;99.90
14357;DHT22;7262;48.764;9.166;2023-07-31T12:39:41;24.20;99.90
14357;DHT22;7262;48.764;9.166;2023-07-31T12:42:12;24.10;99.90
14357;DHT22;7262;48.764;9.166;2023-07-31T12:44:38;23.90;99.90
14357;DHT22;7262;48.764;9.166;2023-07-31T12:47:06;23.50;99.90
14357;DHT22;7262;48.764;9.166;2023-07-31T12:49:32;23.30;99.90
14357;DHT22;7262;48.764;9.166;2023-07-31T12:51:59;23.20;99.90
14357;DHT22;7262;48.764;9.166;2023-07-31T12:54:26;23.10;99.90
14357;DHT22;7262;48.764;9.166;2023-07-31T12:56:53;23.20;99.90
14357;DHT22;7262;48.764;9.166;2023-07-31T12:59:21;23.30;99.90
14357;DHT22;7262;48.764;9.166;2023-07-31T13:01:48;23.40;99.90
14357;DHT22;7262;48.764;9.166;2023-07-31T13:04:16;23.60;99.90
14357;DHT22;7262;48.764;9.166;2023-07-31T13:06:42;23.90;99.90
14357;DHT22;7262;48.764;9.166;2023-07-31T13:09:09;24.00;99.90
14357;DHT22;7262;48.764;9.166;2023-07-31T13:11:36;23.80;99.90
14357;DHT22;7262;48.764;9.166;2023-07-31T13:14:03;24.10;99.90
14357;DHT22;7262;48.764;9.166;2023-07-31T13:16:31;24.30;99.90
14357;DHT22;7262;48.764;9.166;2023-07-31T13:18:59;24.40;99.90
14357;DHT22;7262;48.764;9.166;2023-07-31T13:21:25;24.50;99.90
14357;DHT22;7262;48.764;9.166;2023-07-31T13:23:52;24.60;99.90
14357;DHT22;7262;48.764;9.166;2023-07-31T13:26:23;24.90;99.90
14357;DHT22;7262;48.764;9.166;2023-07-31T13:28:50;25.10;99.90
14357;DHT22;7262;48.764;9.166;2023-07-31T13:31:17;25.50;99.90
14357;DHT22;7262;48.764;9.166;2023-07-31T13:33:45;26.30;99.90
14357;DHT22;7262;48.764;9.166;2023-07-31T13:38:47;27.70;99.90
14357;DHT22;7262;48.764;9.166;2023-07-31T13:41:14;27.60;99.90
14357;DHT22;7262;48.764;9.166;2023-07-31T13:43:40;28.10;99.90
14357;DHT22;7262;48.764;9.166;2023-07-31T13:46:07;27.70;99.90
14357;DHT22;7262;48.764;9.166;2023-07-31T13:48:36;27.40;99.90
14357;DHT22;7262;48.764;9.166;2023-07-31T13:51:04;27.70;99.90
14357;DHT22;7262;48.764;9.166;2023-07-31T13:53:40;27.40;99.90
14357;DHT22;7262;48.764;9.166;2023-07-31T13:56:21;26.90;99.90
14357;DHT22;7262;48.764;9.166;2023-07-31T13:58:48;26.70;99.90
14357;DHT22;7262;48.764;9.166;2023-07-31T14:03:50;26.10;99.90
14357;DHT22;7262;48.764;9.166;2023-07-31T14:06:18;25.90;99.90
14357;DHT22;7262;48.764;9.166;2023-07-31T14:08:45;25.60;99.90
14357;DHT22;7262;48.764;9.166;2023-07-31T14:11:12;25.10;99.90
14357;DHT22;7262;48.764;9.166;2023-07-31T14:13:39;24.80;99.90
14357;DHT22;7262;48.764;9.166;2023-07-31T14:16:05;24.80;99.90
14357;DHT22;7262;48.764;9.166;2023-07-31T14:18:32;24.70;99.90
14357;DHT22;7262;48.764;9.166;2023-07-31T14:20:59;24.80;99.90
14357;DHT22;7262;48.764;9.166;2023-07-31T14:23:27;24.80;99.90
14357;DHT22;7262;48.764;9.166;2023-07-31T14:25:54;24.80;99.90
14357;DHT22;7262;48.764;9.166;2023-07-31T14:28:22;25.00;99.90
14357;DHT22;7262;48.764;9.166;2023-07-31T14:30:49;24.90;99.90
14357;DHT22;7262;48.764;9.166;2023-07-31T14:33:16;24.70;99.90
14357;DHT22;7262;48.764;9.166;2023-07-31T14:35:42;24.80;99.90
14357;DHT22;7262;48.764;9.166;2023-07-31T14:38:10;24.90;99.90
14357;DHT22;7262;48.764;9.166;2023-07-31T14:40:38;24.80;99.90
14357;DHT22;7262;48.764;9.166;2023-07-31T14:43:05;24.90;99.90
14357;DHT22;7262;48.764;9.166;2023-07-31T14:45:31;24.70;99.90
14357;DHT22;7262;48.764;9.166;2023-07-31T14:47:58;24.60;99.90
14357;DHT22;7262;48.764;9.166;2023-07-31T14:50:25;24.80;99.90
14357;DHT22;7262;48.764;9.166;2023-07-31T14:52:52;25.20;99.90
14357;DHT22;7262;48.764;9.166;2023-07-31T14:55:19;25.30;99.90
14357;DHT22;7262;48.764;9.166;2023-07-31T14:57:47;25.00;99.90
14357;DHT22;7262;48.764;9.166;2023-07-31T15:00:14;24.90;99.90
14357;DHT22;7262;48.764;9.166;2023-07-31T15:02:41;25.20;99.90
14357;DHT22;7262;48.764;9.166;2023-07-31T15:05:08;25.20;99.90
14357;DHT22;7262;48.764;9.166;2023-07-31T15:07:36;25.10;99.90
14357;DHT22;7262;48.764;9.166;2023-07-31T15:10:03;25.20;99.90
14357;DHT22;7262;48.764;9.166;2023-07-31T15:12:30;25.40;99.90
14357;DHT22;7262;48.764;9.166;2023-07-31T15:14:58;25.60;99.90
14357;DHT22;7262;48.764;9.166;2023-07-31T15:17:25;25.50;99.90
14357;DHT22;7262;48.764;9.166;2023-07-31T15:19:54;25.40;99.90
14357;DHT22;7262;48.764;9.166;2023-07-31T15:22:20;25.40;99.90
14357;DHT22;7262;48.764;9.166;2023-07-31T15:24:48;25.40;99.90
14357;DHT22;7262;48.764;9.166;2023-07-31T15:27:15;25.50;99.90
14357;DHT22;7262;48.764;9.166;2023-07-31T15:29:41;25.70;99.90
14357;DHT22;7262;48.764;9.166;2023-07-31T15:32:10;25.80;99.90
14357;DHT22;7262;48.764;9.166;2023-07-31T15:34:38;25.70;99.90
14357;DHT22;7262;48.764;9.166;2023-07-31T15:37:05;25.60;99.90
14357;DHT22;7262;48.764;9.166;2023-07-31T15:39:32;25.60;99.90
14357;DHT22;7262;48.764;9.166;2023-07-31T15:41:58;25.70;99.90
14357;DHT22;7262;48.764;9.166;2023-07-31T15:44:25;25.70;99.90
14357;DHT22;7262;48.764;9.166;2023-07-31T15:46:53;25.60;99.90
14357;DHT22;7262;48.764;9.166;2023-07-31T15:49:21;25.60;99.90
14357;DHT22;7262;48.764;9.166;2023-07-31T15:51:48;25.60;99.90
14357;DHT22;7262;48.764;9.166;2023-07-31T15:54:16;25.50;99.90
14357;DHT22;7262;48.764;9.166;2023-07-31T15:56:44;25.50;99.90
14357;DHT22;7262;48.764;9.166;2023-07-31T15:59:11;25.60;99.90
14357;DHT22;7262;48.764;9.166;2023-07-31T16:01:37;25.70;99.90
14357;DHT22;7262;48.764;9.166;2023-07-31T16:04:04;25.70;99.90
14357;DHT22;7262;48.764;9.166;2023-07-31T16:06:32;25.60;99.90
14357;DHT22;7262;48.764;9.166;2023-07-31T16:08:59;25.50;99.90
14357;DHT22;7262;48.764;9.166;2023-07-31T16:11:27;25.30;99.90
14357;DHT22;7262;48.764;9.166;2023-07-31T16:13:54;25.20;99.90
14357;DHT22;7262;48.764;9.166;2023-07-31T16:16:20;25.10;99.90
14357;DHT22;7262;48.764;9.166;2023-07-31T16:18:47;25.00;99.90
14357;DHT22;7262;48.764;9.166;2023-07-31T16:21:15;24.90;99.90
14357;DHT22;7262;48.764;9.166;2023-07-31T16:23:43;24.80;99.90
14357;DHT22;7262;48.764;9.166;2023-07-31T16:26:10;24.70;99.90
14357;DHT22;7262;48.764;9.166;2023-07-31T16:28:37;24.50;99.90
14357;DHT22;7262;48.764;9.166;2023-07-31T16:36:14;24.40;99.90
14357;DHT22;7262;48.764;9.166;2023-07-31T16:38:48;24.10;99.90
14357;DHT22;7262;48.764;9.166;2023-07-31T16:41:26;24.30;99.90
14357;DHT22;7262;48.764;9.166;2023-07-31T16:43:55;24.40;99.90
14357;DHT22;7262;48.764;9.166;2023-07-31T16:46:22;24.40;99.90
14357;DHT22;7262;48.764;9.166;2023-07-31T16:51:48;24.40;99.90
14357;DHT22;7262;48.764;9.166;2023-07-31T16:54:25;24.20;99.90
14357;DHT22;7262;48.764;9.166;2023-07-31T16:56:54;24.10;99.90
14357;DHT22;7262;48.764;9.166;2023-07-31T16:59:21;24.00;99.90
14357;DHT22;7262;48.764;9.166;2023-07-31T17:01:48;23.90;99.90
14357;DHT22;7262;48.764;9.166;2023-07-31T17:04:15;23.80;99.90
14357;DHT22;7262;48.764;9.166;2023-07-31T17:06:42;23.70;99.90
14357;DHT22;7262;48.764;9.166;2023-07-31T17:09:18;23.60;99.90
14357;DHT22;7262;48.764;9.166;2023-07-31T17:11:53;23.60;99.90
14357;DHT22;7262;48.764;9.166;2023-07-31T17:14:20;23.50;99.90
14357;DHT22;7262;48.764;9.166;2023-07-31T17:17:02;23.30;99.90
14357;DHT22;7262;48.764;9.166;2023-07-31T17:19:29;23.30;99.90